Time;durP1;ratioP1;P1;durP2;ratioP2;P2;SDS_P1;SDS_P2;PMS_P1;PMS_P2;Temp;Humidity;BMP_temperature;BMP_pressure;BME280_temperature;BME280_humidity;BME280_pressure;Samples;Min_cycle;Max_cycle;Signal;HPM_P1;HPM_P2
2021/11/26 00:01:38;;;;;;;8.63;7.40;;;11.70;96.70;;;;;;4888643;29;20301;-76
2021/11/26 00:04:08;;;;;;;8.38;7.55;;;11.70;96.70;;;;;;4885888;29;20036;-76
2021/11/26 00:06:37;;;;;;;7.43;6.43;;;11.70;96.70;;;;;;4871981;29;20044;-77
2021/11/26 00:09:05;;;;;;;8.10;7.13;;;11.70;96.70;;;;;;4894133;29;20044;-76
2021/11/26 00:11:33;;;;;;;8.45;7.45;;;11.80;96.70;;;;;;4870190;29;20068;-77
2021/11/26 00:14:15;;;;;;;9.25;7.57;;;11.80;96.70;;;;;;4870634;29;20114;-77
2021/11/26 00:16:47;;;;;;;8.40;7.50;;;11.80;96.70;;;;;;4870415;29;20170;-76
2021/11/26 00:19:15;;;;;;;8.25;7.13;;;11.80;96.70;;;;;;4869949;29;20044;-75
2021/11/26 00:21:43;;;;;;;9.05;7.45;;;11.80;96.70;;;;;;4886411;29;20041;-76
2021/11/26 00:24:14;;;;;;;9.77;8.15;;;11.80;96.70;;;;;;4887476;29;20611;-76
2021/11/26 00:26:43;;;;;;;10.18;8.13;;;11.80;96.70;;;;;;4888355;29;20048;-76
2021/11/26 00:29:11;;;;;;;8.48;7.22;;;11.80;96.70;;;;;;4873092;29;20041;-75
2021/11/26 00:31:40;;;;;;;8.70;7.35;;;11.80;96.70;;;;;;4890739;29;20512;-76
2021/11/26 00:34:10;;;;;;;9.05;7.43;;;11.80;96.70;;;;;;4870307;29;20411;-76
2021/11/26 00:36:55;;;;;;;9.05;8.02;;;11.90;96.70;;;;;;4888693;29;20412;-75
2021/11/26 00:39:23;;;;;;;10.82;7.80;;;11.90;96.70;;;;;;4871189;29;20051;-75
2021/11/26 00:41:51;;;;;;;8.48;7.00;;;11.80;96.70;;;;;;4890172;29;20054;-76
2021/11/26 00:44:20;;;;;;;8.50;7.13;;;11.80;96.70;;;;;;4874926;29;20044;-76
2021/11/26 00:46:48;;;;;;;7.78;6.82;;;11.80;96.70;;;;;;4873045;29;20052;-76
2021/11/26 00:49:18;;;;;;;8.07;6.70;;;11.80;96.70;;;;;;4890250;29;20044;-76
2021/11/26 00:51:46;;;;;;;8.88;7.82;;;11.80;96.70;;;;;;4882619;29;20136;-75
2021/11/26 00:54:14;;;;;;;8.25;7.45;;;11.70;96.70;;;;;;4886675;29;20167;-76
2021/11/26 00:56:42;;;;;;;8.85;7.70;;;11.70;96.70;;;;;;4871066;29;20070;-76
2021/11/26 00:59:10;;;;;;;9.05;7.45;;;11.70;96.70;;;;;;4888957;29;20074;-76
2021/11/26 01:01:38;;;;;;;9.07;6.75;;;11.80;96.70;;;;;;4875232;29;20048;-76
2021/11/26 01:04:06;;;;;;;8.07;6.75;;;11.70;96.70;;;;;;4887057;29;20546;-76
2021/11/26 01:06:36;;;;;;;7.85;7.05;;;11.70;96.70;;;;;;4889721;29;20041;-75
2021/11/26 01:09:04;;;;;;;7.55;6.38;;;11.60;96.70;;;;;;4889038;29;20414;-76
2021/11/26 01:11:32;;;;;;;7.65;6.35;;;11.60;96.70;;;;;;4891378;29;20600;-76
2021/11/26 01:14:00;;;;;;;6.85;6.15;;;11.60;96.70;;;;;;4873323;29;20045;-76
2021/11/26 01:16:29;;;;;;;8.15;6.65;;;11.50;96.70;;;;;;4871501;29;20511;-75
2021/11/26 01:18:57;;;;;;;7.70;6.40;;;11.40;96.70;;;;;;4890876;29;20041;-76
2021/11/26 01:21:25;;;;;;;7.90;6.50;;;11.40;96.70;;;;;;4873435;29;20052;-78
2021/11/26 01:23:55;;;;;;;7.30;6.32;;;11.40;96.70;;;;;;4858300;29;20065;-78
2021/11/26 01:26:23;;;;;;;7.78;6.28;;;11.40;96.70;;;;;;4871235;29;20071;-77
2021/11/26 01:28:51;;;;;;;7.63;6.78;;;11.30;96.70;;;;;;4888609;29;20507;-78
2021/11/26 01:31:20;;;;;;;6.80;5.90;;;11.30;96.70;;;;;;4889315;29;20543;-78
2021/11/26 01:33:48;;;;;;;9.60;6.53;;;11.30;96.70;;;;;;4870574;29;20048;-78
2021/11/26 01:36:16;;;;;;;7.03;6.25;;;11.30;96.70;;;;;;4889653;29;20123;-78
2021/11/26 01:38:44;;;;;;;11.02;7.22;;;11.30;96.70;;;;;;4876682;29;20363;-78
2021/11/26 01:41:14;;;;;;;7.70;6.57;;;11.20;96.70;;;;;;4876822;29;20050;-78
2021/11/26 01:43:42;;;;;;;8.15;6.20;;;11.20;96.70;;;;;;4872896;29;20147;-78
2021/11/26 01:46:11;;;;;;;7.82;6.28;;;11.20;96.70;;;;;;4884682;29;20052;-77
2021/11/26 01:48:42;;;;;;;8.20;6.55;;;11.20;96.70;;;;;;4874165;29;20044;-77
2021/11/26 01:51:11;;;;;;;7.82;6.68;;;11.10;96.70;;;;;;4885718;29;20566;-78
2021/11/26 01:53:40;;;;;;;8.00;6.53;;;11.10;96.70;;;;;;4871511;29;20067;-78
2021/11/26 01:56:08;;;;;;;8.48;6.82;;;11.10;96.70;;;;;;4872332;29;20048;-77
2021/11/26 01:58:38;;;;;;;8.07;7.28;;;11.10;96.70;;;;;;4855067;29;20041;-76
2021/11/26 02:01:09;;;;;;;8.23;7.18;;;11.10;96.70;;;;;;4885774;29;20043;-76
2021/11/26 02:03:38;;;;;;;8.50;6.57;;;11.20;96.70;;;;;;4872790;29;20147;-76
2021/11/26 02:06:06;;;;;;;7.63;6.65;;;11.10;96.70;;;;;;4871945;29;20045;-76
2021/11/26 02:08:34;;;;;;;9.73;7.85;;;11.20;96.70;;;;;;4882216;29;20140;-76
2021/11/26 02:11:02;;;;;;;8.32;6.97;;;11.20;96.70;;;;;;4866626;29;20052;-76
2021/11/26 02:13:31;;;;;;;8.07;6.72;;;11.20;96.70;;;;;;4869646;29;20060;-76
2021/11/26 02:16:02;;;;;;;8.75;7.35;;;11.20;96.70;;;;;;4892639;29;20400;-76
2021/11/26 02:18:31;;;;;;;8.45;7.53;;;11.20;96.70;;;;;;4881600;29;20059;-76
2021/11/26 02:21:01;;;;;;;8.10;6.97;;;11.10;96.70;;;;;;4873779;29;20044;-76
2021/11/26 02:23:29;;;;;;;7.88;6.93;;;11.20;96.70;;;;;;4872703;29;20253;-76
2021/11/26 02:25:57;;;;;;;8.00;6.78;;;11.20;96.70;;;;;;4868913;29;20498;-76
2021/11/26 02:28:26;;;;;;;7.70;6.28;;;11.20;96.70;;;;;;4870784;29;20713;-77
2021/11/26 02:30:54;;;;;;;8.27;6.45;;;11.10;96.70;;;;;;4872356;29;20547;-76
2021/11/26 02:33:22;;;;;;;8.13;6.35;;;11.00;96.70;;;;;;4871028;29;20132;-76
2021/11/26 02:35:55;;;;;;;7.38;6.20;;;11.00;96.70;;;;;;4885655;29;20104;-76
2021/11/26 02:38:27;;;;;;;7.75;6.35;;;11.10;96.70;;;;;;4872580;29;20048;-76
2021/11/26 02:40:55;;;;;;;6.80;6.10;;;11.10;96.70;;;;;;4853066;29;20060;-76
2021/11/26 02:43:25;;;;;;;8.50;6.72;;;11.10;96.70;;;;;;4869158;29;20043;-76
2021/11/26 02:45:54;;;;;;;7.22;5.80;;;11.00;96.70;;;;;;4873808;29;20048;-76
2021/11/26 02:48:22;;;;;;;8.90;6.03;;;11.00;96.70;;;;;;4870098;29;20491;-76
2021/11/26 02:50:50;;;;;;;6.72;5.80;;;11.00;96.70;;;;;;4886862;29;20096;-76
2021/11/26 02:53:19;;;;;;;7.45;6.05;;;11.00;96.70;;;;;;4869990;29;20139;-76
2021/11/26 02:55:49;;;;;;;9.15;6.80;;;11.00;96.70;;;;;;4887317;29;20044;-77
2021/11/26 02:58:18;;;;;;;6.88;6.18;;;11.10;96.70;;;;;;4865533;29;20633;-76
2021/11/26 03:00:49;;;;;;;6.85;6.07;;;11.10;96.70;;;;;;4859222;29;20053;-78
2021/11/26 03:03:18;;;;;;;7.00;5.82;;;11.10;96.70;;;;;;4877334;29;20053;-77
2021/11/26 03:05:46;;;;;;;10.50;6.80;;;11.10;96.70;;;;;;4864120;29;20045;-77
2021/11/26 03:08:14;;;;;;;7.22;6.28;;;11.00;96.70;;;;;;4868152;29;20053;-77
2021/11/26 03:10:43;;;;;;;7.25;6.35;;;11.00;96.70;;;;;;4870410;29;20115;-77
2021/11/26 03:13:15;;;;;;;7.32;6.43;;;11.00;96.70;;;;;;4869259;29;20063;-77
2021/11/26 03:15:44;;;;;;;7.00;5.80;;;11.00;96.70;;;;;;4887971;29;20583;-77
2021/11/26 03:18:16;;;;;;;7.28;6.05;;;11.00;96.70;;;;;;4870813;29;20040;-77
2021/11/26 03:20:45;;;;;;;8.10;6.05;;;11.00;96.70;;;;;;4870952;29;20060;-78
2021/11/26 03:23:15;;;;;;;7.47;6.68;;;11.10;96.70;;;;;;4871693;29;20128;-77
2021/11/26 03:25:43;;;;;;;7.00;6.03;;;11.10;96.70;;;;;;4888379;29;20044;-77
2021/11/26 03:28:14;;;;;;;6.95;6.22;;;11.10;96.70;;;;;;4869833;29;20314;-78
2021/11/26 03:30:44;;;;;;;6.63;6.03;;;11.10;96.70;;;;;;4887548;29;20100;-77
2021/11/26 03:33:12;;;;;;;7.15;6.45;;;11.10;96.70;;;;;;4889977;29;20515;-78
2021/11/26 03:35:41;;;;;;;7.35;6.40;;;11.10;96.70;;;;;;4887196;29;20048;-77
2021/11/26 03:38:09;;;;;;;8.10;6.70;;;11.10;96.70;;;;;;4866676;29;20048;-77
2021/11/26 03:40:38;;;;;;;7.93;6.38;;;11.10;96.70;;;;;;4885481;29;20396;-76
2021/11/26 03:43:07;;;;;;;6.65;6.00;;;11.10;96.70;;;;;;4880591;29;20331;-78
2021/11/26 03:45:37;;;;;;;8.05;5.85;;;11.00;96.70;;;;;;4885626;29;20436;-77
2021/11/26 03:48:05;;;;;;;7.60;6.57;;;11.00;96.70;;;;;;4870652;29;20048;-76
2021/11/26 03:50:34;;;;;;;7.28;6.07;;;11.10;96.70;;;;;;4867724;29;20515;-76
2021/11/26 03:53:02;;;;;;;7.93;6.40;;;11.00;96.70;;;;;;4879032;29;20641;-75
2021/11/26 03:55:31;;;;;;;7.93;5.70;;;10.90;96.70;;;;;;4869300;29;20108;-76
2021/11/26 03:57:59;;;;;;;6.43;5.65;;;10.80;96.70;;;;;;4868718;29;20052;-76
2021/11/26 04:00:28;;;;;;;6.63;5.53;;;10.90;96.70;;;;;;4887186;29;20052;-76
2021/11/26 04:02:58;;;;;;;6.55;5.47;;;10.90;96.70;;;;;;4871127;29;20076;-76
2021/11/26 04:05:27;;;;;;;6.75;5.75;;;10.90;96.70;;;;;;4885614;29;20072;-76
2021/11/26 04:07:58;;;;;;;6.43;5.75;;;10.90;96.70;;;;;;4883558;29;20041;-76
2021/11/26 04:10:28;;;;;;;6.65;5.70;;;10.90;96.70;;;;;;4887199;29;20072;-76
2021/11/26 04:12:57;;;;;;;8.40;5.78;;;10.80;96.70;;;;;;4869995;29;20060;-76
2021/11/26 04:15:25;;;;;;;8.10;5.68;;;10.80;96.70;;;;;;4883574;29;20048;-76
2021/11/26 04:18:01;;;;;;;6.30;5.25;;;10.80;96.70;;;;;;4886289;29;20418;-76
2021/11/26 04:20:30;;;;;;;7.70;4.95;;;10.80;96.70;;;;;;4869038;29;20064;-76
2021/11/26 04:22:59;;;;;;;6.55;4.88;;;10.80;96.70;;;;;;4887168;29;20063;-76
2021/11/26 04:25:29;;;;;;;5.53;5.03;;;10.80;96.70;;;;;;4867598;29;20083;-76
2021/11/26 04:27:58;;;;;;;7.50;5.97;;;10.90;96.70;;;;;;4869472;29;20055;-76
2021/11/26 04:30:29;;;;;;;6.78;5.80;;;10.90;96.70;;;;;;4870205;29;20527;-76
2021/11/26 04:33:00;;;;;;;6.88;5.72;;;10.90;96.70;;;;;;4869205;29;20622;-76
2021/11/26 04:35:29;;;;;;;6.65;5.20;;;10.80;96.70;;;;;;4886358;29;20796;-76
2021/11/26 04:37:57;;;;;;;5.63;5.03;;;10.80;96.70;;;;;;4870056;29;21384;-75
2021/11/26 04:40:30;;;;;;;6.18;5.40;;;10.90;96.70;;;;;;4869062;29;20106;-77
2021/11/26 04:42:59;;;;;;;5.93;5.25;;;10.80;96.70;;;;;;4868432;29;20084;-77
2021/11/26 04:45:27;;;;;;;7.22;6.35;;;10.90;96.70;;;;;;4866503;29;20044;-76
2021/11/26 04:47:55;;;;;;;7.20;6.25;;;10.80;96.70;;;;;;4875605;29;20057;-76
2021/11/26 04:50:25;;;;;;;7.43;6.03;;;10.80;96.70;;;;;;4870841;29;20051;-77
2021/11/26 04:52:54;;;;;;;8.10;6.95;;;10.80;96.70;;;;;;4866973;29;20063;-76
2021/11/26 04:55:23;;;;;;;11.10;7.40;;;10.80;96.70;;;;;;4882728;29;20328;-77
2021/11/26 04:57:52;;;;;;;9.57;7.03;;;10.70;96.70;;;;;;4857727;29;20052;-76
2021/11/26 05:00:21;;;;;;;8.45;6.10;;;10.60;96.70;;;;;;4869375;29;20059;-76
2021/11/26 05:02:50;;;;;;;8.20;6.80;;;10.60;96.70;;;;;;4882985;29;20412;-76
2021/11/26 05:05:18;;;;;;;6.70;5.93;;;10.60;96.70;;;;;;4873904;29;20044;-76
2021/11/26 05:07:48;;;;;;;6.43;5.72;;;10.70;96.70;;;;;;4848013;29;20049;-76
2021/11/26 05:10:19;;;;;;;8.02;6.22;;;10.80;96.70;;;;;;4887397;29;20044;-76
2021/11/26 05:12:56;;;;;;;6.80;6.05;;;10.90;96.70;;;;;;4890989;29;20594;-78
2021/11/26 05:15:26;;;;;;;8.25;6.15;;;11.00;96.70;;;;;;4875115;29;20386;-78
2021/11/26 05:17:56;;;;;;;6.70;5.82;;;11.00;96.70;;;;;;4876420;29;20048;-78
2021/11/26 05:20:25;;;;;;;7.82;6.03;;;10.90;96.70;;;;;;4891561;29;20032;-78
2021/11/26 05:22:55;;;;;;;7.45;6.05;;;11.00;96.70;;;;;;4865555;29;20052;-78
2021/11/26 05:25:25;;;;;;;7.40;6.05;;;11.00;96.70;;;;;;4858183;29;20049;-78
2021/11/26 05:27:54;;;;;;;7.10;6.13;;;11.00;96.70;;;;;;4886966;29;20456;-78
2021/11/26 05:30:22;;;;;;;7.90;6.72;;;10.90;96.70;;;;;;4889520;29;20065;-77
2021/11/26 05:32:51;;;;;;;12.20;7.18;;;10.80;96.70;;;;;;4872985;29;20060;-78
2021/11/26 05:35:20;;;;;;;7.85;6.55;;;10.90;96.70;;;;;;4871429;29;20191;-78
2021/11/26 05:37:48;;;;;;;6.93;6.22;;;10.90;96.70;;;;;;4883435;29;20059;-78
2021/11/26 05:40:19;;;;;;;8.15;6.35;;;10.90;96.70;;;;;;4889433;29;20041;-78
2021/11/26 05:42:48;;;;;;;7.13;6.05;;;10.90;96.70;;;;;;4887928;29;20123;-78
2021/11/26 05:45:18;;;;;;;8.15;7.28;;;10.80;96.70;;;;;;4873996;29;20834;-78
2021/11/26 05:47:46;;;;;;;8.27;7.32;;;10.80;96.70;;;;;;4876708;29;20074;-78
2021/11/26 05:50:18;;;;;;;10.00;7.82;;;10.80;96.70;;;;;;4872820;29;20052;-78
2021/11/26 05:52:46;;;;;;;8.88;7.10;;;10.90;96.70;;;;;;4863386;29;20078;-78
2021/11/26 05:55:21;;;;;;;7.93;6.45;;;10.90;96.70;;;;;;4893819;29;20123;-78
2021/11/26 05:57:51;;;;;;;7.78;6.28;;;10.90;96.70;;;;;;4876664;29;20059;-78
2021/11/26 06:00:22;;;;;;;6.50;5.75;;;10.90;96.70;;;;;;4872047;29;20524;-78
2021/11/26 06:02:51;;;;;;;7.30;6.13;;;10.90;96.70;;;;;;4873045;29;21528;-78
2021/11/26 06:05:20;;;;;;;7.05;6.25;;;10.90;96.70;;;;;;4857098;29;20063;-78
2021/11/26 06:07:49;;;;;;;7.40;5.80;;;10.90;96.70;;;;;;4868925;29;20155;-78
2021/11/26 06:10:19;;;;;;;6.82;6.13;;;11.00;96.70;;;;;;4873311;29;20064;-78
2021/11/26 06:12:49;;;;;;;7.25;6.32;;;10.90;96.70;;;;;;4897625;29;20071;-78
2021/11/26 06:15:19;;;;;;;6.35;5.72;;;10.80;96.70;;;;;;4875165;29;20056;-78
2021/11/26 06:17:48;;;;;;;8.32;6.07;;;10.80;96.70;;;;;;4874155;29;20506;-78
2021/11/26 06:20:17;;;;;;;8.93;6.20;;;10.80;96.70;;;;;;4871249;29;20041;-78
2021/11/26 06:22:46;;;;;;;8.98;7.32;;;10.80;96.70;;;;;;4887739;29;20060;-78
2021/11/26 06:25:16;;;;;;;8.05;6.15;;;10.80;96.70;;;;;;4873463;29;20051;-78
2021/11/26 06:27:47;;;;;;;6.60;5.65;;;10.80;96.70;;;;;;4888728;29;20064;-77
2021/11/26 06:30:17;;;;;;;8.98;5.93;;;10.70;96.70;;;;;;4858053;29;20647;-78
2021/11/26 06:32:46;;;;;;;7.30;5.60;;;10.80;96.70;;;;;;4889379;29;20044;-78
2021/11/26 06:35:18;;;;;;;7.28;5.53;;;10.80;96.70;;;;;;4870777;29;20045;-77
2021/11/26 06:37:47;;;;;;;9.50;5.57;;;10.90;96.70;;;;;;4862026;29;20056;-77
2021/11/26 06:40:16;;;;;;;7.50;5.38;;;10.90;96.70;;;;;;4888526;29;20251;-78
2021/11/26 06:42:47;;;;;;;7.53;6.00;;;10.80;96.70;;;;;;4867708;29;20123;-78
2021/11/26 06:45:15;;;;;;;7.30;5.65;;;10.80;96.70;;;;;;4887570;29;20050;-77
2021/11/26 06:47:45;;;;;;;7.30;5.78;;;10.90;96.70;;;;;;4884250;29;20157;-77
2021/11/26 06:50:15;;;;;;;6.68;5.80;;;10.90;96.70;;;;;;4883768;29;20049;-77
2021/11/26 06:52:45;;;;;;;7.30;5.65;;;10.90;96.70;;;;;;4872064;29;20048;-77
2021/11/26 06:55:14;;;;;;;7.20;5.72;;;10.90;96.70;;;;;;4875134;29;20056;-77
2021/11/26 06:57:43;;;;;;;6.00;5.25;;;10.90;96.70;;;;;;4873875;29;20503;-77
2021/11/26 07:00:15;;;;;;;7.63;5.65;;;10.90;96.70;;;;;;4857127;29;20040;-77
2021/11/26 07:02:44;;;;;;;6.05;5.43;;;10.80;96.70;;;;;;4886831;29;20040;-77
2021/11/26 07:05:12;;;;;;;6.75;5.45;;;10.90;96.70;;;;;;4894197;29;20044;-77
2021/11/26 07:07:41;;;;;;;6.18;5.25;;;10.90;96.70;;;;;;4872515;29;20111;-77
2021/11/26 07:10:11;;;;;;;7.35;5.75;;;10.90;96.70;;;;;;4888690;29;20049;-77
2021/11/26 07:12:40;;;;;;;7.28;5.72;;;10.90;96.70;;;;;;4892926;29;20403;-77
2021/11/26 07:15:11;;;;;;;5.97;5.38;;;10.90;96.70;;;;;;4869365;29;20044;-77
2021/11/26 07:17:40;;;;;;;8.30;6.03;;;10.80;96.70;;;;;;4889205;29;20044;-77
2021/11/26 07:20:09;;;;;;;7.32;6.15;;;10.80;96.70;;;;;;4870855;29;20389;-77
2021/11/26 07:22:38;;;;;;;7.43;5.50;;;10.80;96.70;;;;;;4870420;29;20044;-77
2021/11/26 07:25:06;;;;;;;8.07;5.72;;;10.70;96.70;;;;;;4875223;29;20401;-77
2021/11/26 07:27:34;;;;;;;9.27;6.05;;;10.60;96.70;;;;;;4874277;29;20044;-77
2021/11/26 07:30:03;;;;;;;7.53;5.78;;;10.60;96.70;;;;;;4887515;29;20044;-77
2021/11/26 07:32:31;;;;;;;8.60;5.93;;;10.70;96.70;;;;;;4888823;29;20042;-77
2021/11/26 07:35:00;;;;;;;8.57;6.95;;;10.70;96.70;;;;;;4872353;29;20052;-78
2021/11/26 07:37:28;;;;;;;8.88;6.13;;;10.80;96.70;;;;;;4886706;29;20147;-77
2021/11/26 07:39:57;;;;;;;7.35;6.00;;;10.80;96.70;;;;;;4870277;29;20048;-77
2021/11/26 07:42:25;;;;;;;7.53;5.95;;;10.80;96.70;;;;;;4859926;29;20217;-77
2021/11/26 07:44:53;;;;;;;6.88;6.18;;;10.80;96.70;;;;;;4868850;29;20067;-77
2021/11/26 07:47:21;;;;;;;8.30;6.53;;;10.80;96.70;;;;;;4854739;29;20037;-77
2021/11/26 07:49:52;;;;;;;8.00;6.60;;;10.90;96.70;;;;;;4867422;29;20049;-76
2021/11/26 07:52:23;;;;;;;7.43;6.57;;;10.90;96.70;;;;;;4867911;29;20045;-78
2021/11/26 07:54:51;;;;;;;6.97;5.60;;;10.90;96.70;;;;;;4851972;29;20503;-76
2021/11/26 07:57:19;;;;;;;7.07;6.35;;;10.90;96.70;;;;;;4867037;29;20061;-78
2021/11/26 07:59:47;;;;;;;7.55;6.25;;;11.00;96.70;;;;;;4850550;29;20068;-77
2021/11/26 08:02:15;;;;;;;7.82;6.43;;;10.90;96.70;;;;;;4870792;29;20036;-77
2021/11/26 08:04:43;;;;;;;9.40;7.53;;;11.00;96.70;;;;;;4853015;29;20047;-79
2021/11/26 08:07:11;;;;;;;7.90;6.38;;;11.00;96.70;;;;;;4852690;29;20132;-78
2021/11/26 08:09:42;;;;;;;9.55;6.50;;;11.00;96.70;;;;;;4835951;29;20049;-77
2021/11/26 08:12:10;;;;;;;8.27;6.20;;;11.10;96.70;;;;;;4853191;29;20072;-78
2021/11/26 08:14:38;;;;;;;9.70;6.82;;;11.10;96.70;;;;;;4853132;29;20089;-77
2021/11/26 08:17:06;;;;;;;7.53;6.03;;;11.20;96.70;;;;;;4871981;29;20049;-77
2021/11/26 08:19:35;;;;;;;8.02;6.47;;;11.30;96.70;;;;;;4850923;29;20472;-77
2021/11/26 08:22:02;;;;;;;8.10;6.95;;;11.30;96.70;;;;;;4853003;29;20048;-77
2021/11/26 08:24:30;;;;;;;9.93;5.88;;;11.30;96.70;;;;;;4849045;29;20739;-77
2021/11/26 08:27:00;;;;;;;8.27;6.13;;;11.30;96.70;;;;;;4853557;29;20041;-83
2021/11/26 08:29:29;;;;;;;9.38;6.15;;;11.40;96.70;;;;;;4850173;29;20077;-77
2021/11/26 08:31:57;;;;;;;7.13;5.85;;;11.40;96.70;;;;;;4851326;29;20072;-77
2021/11/26 08:34:25;;;;;;;7.68;5.80;;;11.30;96.70;;;;;;4852163;29;20097;-77
2021/11/26 08:36:53;;;;;;;7.88;6.28;;;11.30;96.70;;;;;;4851991;29;20048;-76
2021/11/26 08:39:21;;;;;;;7.18;5.95;;;11.30;96.70;;;;;;4865794;29;20045;-75
2021/11/26 08:41:49;;;;;;;9.32;6.15;;;11.30;96.70;;;;;;4865204;29;20328;-76
2021/11/26 08:44:19;;;;;;;7.05;6.30;;;11.30;96.70;;;;;;4866914;29;20039;-74
2021/11/26 08:46:48;;;;;;;8.50;6.53;;;11.30;96.70;;;;;;4873074;29;20247;-75
2021/11/26 08:49:17;;;;;;;9.50;6.35;;;11.40;96.70;;;;;;4877363;29;20048;-75
2021/11/26 08:51:46;;;;;;;9.00;5.95;;;11.40;96.70;;;;;;4877221;29;20093;-75
2021/11/26 08:54:15;;;;;;;9.15;6.75;;;11.40;96.70;;;;;;4888443;29;20055;-75
2021/11/26 08:56:45;;;;;;;6.47;5.57;;;11.30;96.70;;;;;;4892243;29;20044;-75
2021/11/26 08:59:13;;;;;;;6.22;4.57;;;11.30;96.70;;;;;;4864974;29;20053;-76
2021/11/26 09:01:42;;;;;;;6.13;5.20;;;11.20;96.70;;;;;;4892655;29;20041;-77
2021/11/26 09:04:11;;;;;;;7.13;5.13;;;11.30;96.70;;;;;;4890375;29;20048;-76
2021/11/26 09:06:39;;;;;;;7.93;5.65;;;11.40;96.70;;;;;;4861775;29;20040;-76
2021/11/26 09:09:07;;;;;;;15.00;9.48;;;11.50;96.70;;;;;;4874750;29;20052;-76
2021/11/26 09:11:35;;;;;;;10.02;6.70;;;11.50;96.70;;;;;;4872793;29;20130;-76
2021/11/26 09:14:05;;;;;;;8.40;5.97;;;11.50;96.70;;;;;;4871380;29;20064;-76
2021/11/26 09:16:34;;;;;;;10.95;6.40;;;11.50;96.70;;;;;;4871118;29;20040;-76
2021/11/26 09:19:04;;;;;;;8.30;6.40;;;11.60;96.70;;;;;;4885731;29;20041;-76
2021/11/26 09:21:32;;;;;;;9.30;5.75;;;11.60;96.70;;;;;;4872760;29;20048;-77
2021/11/26 09:24:06;;;;;;;8.43;5.63;;;11.60;96.70;;;;;;4872711;29;20481;-77
2021/11/26 09:26:35;;;;;;;6.80;5.55;;;11.70;96.70;;;;;;4894274;29;20449;-77
2021/11/26 09:29:03;;;;;;;6.88;5.30;;;11.80;96.70;;;;;;4891576;29;20519;-77
2021/11/26 09:31:31;;;;;;;7.72;4.78;;;11.80;96.70;;;;;;4869583;29;20050;-80
2021/11/26 09:34:01;;;;;;;7.28;5.43;;;11.80;96.70;;;;;;4871955;29;20061;-80
2021/11/26 09:36:35;;;;;;;5.72;4.90;;;11.90;96.70;;;;;;4874950;29;20044;-79
2021/11/26 09:39:04;;;;;;;6.13;4.57;;;12.00;96.70;;;;;;4875387;29;20499;-80
2021/11/26 09:41:32;;;;;;;6.18;4.60;;;12.00;96.70;;;;;;4872502;29;20215;-79
2021/11/26 09:44:03;;;;;;;6.70;4.93;;;12.10;96.70;;;;;;4872366;29;20132;-79
2021/11/26 09:46:34;;;;;;;5.50;4.75;;;12.10;96.70;;;;;;4889083;29;20411;-80
2021/11/26 09:49:04;;;;;;;8.88;4.90;;;12.20;96.70;;;;;;4890169;29;20582;-79
2021/11/26 09:51:34;;;;;;;6.60;5.07;;;12.20;96.70;;;;;;4888778;29;20480;-80
2021/11/26 09:54:03;;;;;;;7.38;4.95;;;12.20;96.70;;;;;;4870793;29;20056;-80
2021/11/26 09:56:33;;;;;;;6.95;4.85;;;12.20;96.70;;;;;;4875232;29;20041;-81
2021/11/26 09:59:01;;;;;;;5.43;4.75;;;12.30;96.70;;;;;;4873658;29;20143;-79
2021/11/26 10:01:29;;;;;;;5.38;4.75;;;12.40;96.70;;;;;;4871996;29;20052;-79
2021/11/26 10:03:58;;;;;;;5.25;4.35;;;12.40;96.70;;;;;;4888939;29;20716;-79
2021/11/26 10:06:34;;;;;;;5.15;4.35;;;12.50;96.70;;;;;;4887942;29;20496;-79
2021/11/26 10:09:07;;;;;;;5.57;4.13;;;12.60;96.70;;;;;;4890539;29;20055;-80
2021/11/26 10:11:38;;;;;;;4.60;3.97;;;12.70;96.70;;;;;;4870530;29;20053;-80
2021/11/26 10:14:15;;;;;;;4.63;3.88;;;12.70;96.70;;;;;;4876269;29;20448;-80
2021/11/26 10:17:02;;;;;;;;;;;12.80;96.70;;;;;;4875272;29;20049;-79
2021/11/26 10:19:32;;;;;;;4.37;3.50;;;12.70;96.70;;;;;;4886138;29;19926;-79
2021/11/26 10:22:00;;;;;;;4.72;3.00;;;12.70;96.70;;;;;;4888074;29;20047;-80
2021/11/26 10:24:29;;;;;;;4.88;3.45;;;12.70;96.70;;;;;;4885102;29;20044;-80
2021/11/26 10:26:57;;;;;;;4.28;3.38;;;12.70;96.70;;;;;;4847980;29;20515;-79
2021/11/26 10:29:31;;;;;;;5.60;3.80;;;12.70;96.70;;;;;;4870345;29;20405;-79
2021/11/26 10:32:07;;;;;;;3.97;3.40;;;12.60;96.70;;;;;;4887681;29;20119;-79
2021/11/26 10:34:36;;;;;;;4.03;3.13;;;12.60;96.70;;;;;;4867951;29;20374;-80
2021/11/26 10:37:06;;;;;;;4.20;3.17;;;12.60;96.70;;;;;;4884986;29;20044;-78
2021/11/26 10:39:35;;;;;;;3.47;2.83;;;12.60;96.70;;;;;;4872028;29;20045;-79
2021/11/26 10:42:04;;;;;;;3.90;2.85;;;12.60;96.70;;;;;;4889452;29;20099;-78
2021/11/26 10:44:47;;;;;;;5.07;2.95;;;12.60;96.70;;;;;;4871105;29;20041;-78
2021/11/26 10:56:42;;;;;;;2.50;2.10;;;12.50;96.70;;;;;;4887947;29;20123;-78
2021/11/26 10:58:59;;;;;;;3.00;2.58;;;12.50;96.70;;;;;;4869693;29;20112;-78
2021/11/26 11:01:02;;;;;;;3.13;2.65;;;12.50;96.70;;;;;;4864887;29;20557;-77
2021/11/26 11:03:31;;;;;;;3.67;2.97;;;12.50;96.70;;;;;;4876832;29;20872;-79
2021/11/26 11:05:59;;;;;;;5.55;5.05;;;12.50;96.70;;;;;;4873355;29;20052;-78
2021/11/26 11:08:31;;;;;;;4.90;4.10;;;12.50;96.70;;;;;;4876516;29;20535;-78
2021/11/26 11:11:05;;;;;;;3.97;3.28;;;12.50;96.70;;;;;;4873008;29;20032;-78
2021/11/26 11:13:33;;;;;;;3.80;2.78;;;12.50;96.70;;;;;;4868319;29;20048;-78
2021/11/26 11:16:07;;;;;;;3.90;2.95;;;12.50;96.70;;;;;;4872392;29;20154;-78
2021/11/26 11:18:39;;;;;;;5.68;3.17;;;12.60;96.70;;;;;;4871402;29;20083;-78
2021/11/26 11:21:09;;;;;;;5.20;3.28;;;12.60;96.70;;;;;;4886586;29;20124;-77
2021/11/26 11:23:38;;;;;;;4.47;3.08;;;12.70;96.70;;;;;;4870866;29;20131;-78
2021/11/26 11:26:08;;;;;;;5.38;3.45;;;12.70;96.70;;;;;;4871675;29;20044;-79
2021/11/26 11:28:36;;;;;;;4.15;3.10;;;12.80;96.70;;;;;;4888422;29;20045;-78
2021/11/26 11:31:04;;;;;;;4.15;3.55;;;12.80;96.70;;;;;;4887861;29;20036;-78
2021/11/26 11:33:34;;;;;;;4.47;3.03;;;12.80;96.70;;;;;;4887633;29;20087;-78
2021/11/26 11:36:04;;;;;;;4.50;3.40;;;12.80;96.70;;;;;;4871465;29;20835;-78
2021/11/26 11:38:32;;;;;;;4.55;3.20;;;12.80;96.70;;;;;;4870643;29;20064;-78
2021/11/26 11:41:03;;;;;;;4.40;3.50;;;12.80;96.70;;;;;;4889641;29;20040;-78
2021/11/26 11:43:43;;;;;;;5.47;3.80;;;12.80;96.70;;;;;;4868349;29;20534;-78
2021/11/26 11:46:13;;;;;;;4.82;3.22;;;12.90;96.70;;;;;;4886456;29;20058;-79
2021/11/26 11:48:46;;;;;;;5.35;3.70;;;12.90;96.70;;;;;;4871138;29;20055;-78
2021/11/26 11:51:24;;;;;;;4.68;3.53;;;12.90;96.70;;;;;;4871244;29;20128;-78
2021/11/26 11:54:02;;;;;;;;;;;13.00;96.70;;;;;;4868607;29;20120;-78
2021/11/26 11:56:40;;;;;;;4.50;3.05;;;13.00;96.70;;;;;;4881140;29;19991;-78
2021/11/26 11:59:10;;;;;;;4.78;3.40;;;13.00;96.70;;;;;;4856889;29;20052;-78
2021/11/26 12:01:43;;;;;;;8.02;4.00;;;13.00;96.70;;;;;;4881164;29;20041;-79
2021/11/26 12:04:15;;;;;;;3.90;3.20;;;13.10;96.70;;;;;;4885282;29;20124;-78
2021/11/26 12:06:46;;;;;;;5.28;3.35;;;13.10;96.70;;;;;;4888022;29;20048;-79
2021/11/26 12:09:23;;;;;;;8.43;2.92;;;13.20;96.70;;;;;;4887121;29;20052;-79
2021/11/26 12:12:02;;;;;;;3.95;3.10;;;13.20;96.70;;;;;;4870050;29;20045;-78
2021/11/26 12:14:43;;;;;;;3.83;3.00;;;13.20;96.70;;;;;;4869327;29;20076;-78
2021/11/26 12:17:14;;;;;;;3.45;2.72;;;13.30;96.70;;;;;;4870623;29;20077;-80
2021/11/26 12:19:44;;;;;;;3.13;2.83;;;13.40;96.70;;;;;;4874365;29;20048;-78
2021/11/26 12:22:20;;;;;;;4.03;2.80;;;13.50;96.70;;;;;;4884333;29;20147;-78
2021/11/26 12:24:54;;;;;;;4.57;2.92;;;13.60;96.70;;;;;;4887987;29;20897;-78
2021/11/26 12:27:26;;;;;;;4.20;2.78;;;13.60;96.70;;;;;;4861821;29;20361;-78
2021/11/26 12:29:56;;;;;;;4.20;3.40;;;13.70;96.70;;;;;;4872648;29;20431;-78
2021/11/26 12:32:29;;;;;;;4.20;3.70;;;13.70;96.70;;;;;;4875021;29;20045;-78
2021/11/26 12:35:08;;;;;;;4.38;3.33;;;13.80;96.70;;;;;;4865230;29;20541;-78
2021/11/26 12:37:36;;;;;;;5.22;3.70;;;14.00;96.70;;;;;;4892990;29;20127;-78
2021/11/26 12:40:09;;;;;;;4.82;2.83;;;14.40;96.70;;;;;;4884054;29;20131;-78
2021/11/26 12:42:39;;;;;;;5.05;3.20;;;14.50;96.70;;;;;;4871917;29;20496;-78
2021/11/26 12:45:12;;;;;;;5.80;3.65;;;14.60;96.70;;;;;;4869752;29;20043;-78
2021/11/26 12:47:44;;;;;;;4.28;3.13;;;14.70;96.70;;;;;;4874001;29;20123;-78
2021/11/26 12:53:06;;;;;;;3.28;2.67;;;14.50;96.70;;;;;;4887423;29;20049;-78
2021/11/26 12:55:35;;;;;;;3.75;2.78;;;14.40;96.70;;;;;;4888041;29;20051;-78
2021/11/26 12:58:06;;;;;;;3.65;2.88;;;14.30;96.70;;;;;;4872164;29;20113;-78
2021/11/26 13:00:36;;;;;;;3.17;2.38;;;14.20;96.70;;;;;;4876813;29;20467;-79
2021/11/26 13:03:07;;;;;;;4.00;3.25;;;14.20;96.70;;;;;;4888713;29;20132;-78
2021/11/26 13:05:36;;;;;;;4.68;3.30;;;14.10;96.70;;;;;;4874529;29;20056;-78
2021/11/26 13:08:05;;;;;;;3.95;2.92;;;14.10;96.70;;;;;;4892512;29;20458;-78
2021/11/26 13:10:34;;;;;;;4.80;2.72;;;14.00;96.70;;;;;;4875853;29;20143;-79
2021/11/26 13:13:02;;;;;;;4.07;2.80;;;13.90;96.70;;;;;;4872968;29;20047;-80